SJC weather

Norman Y. Mineta San Jose International Airport
San Jose, California, United States

Public forecast

Using degrees Fahrenheit for public forecast. Weather courtesy of forecast.io.

METAR (pilot weather report)

Retrieved 2019/04/26 04:53 UTC (55 minutes ago):

KSJC 260453Z 32006KT 10SM FEW001 FEW110 13/13 A2999 RMK AO2 SLP155 HZ FEW001 T01330128 $

TAF (pilot weather forecast)

Forecast is more than 12 hours old.

Retrieved 2019/04/25 00:42 UTC (1 day ago):

TAF KSJC 252341Z 2600/2624 31012KT P6SM FEW050 FM260400 30005KT P6SM SKC FM261000 VRB03KT P6SM FEW015 FM261800 31012KT P6SM FEW250